sensor_id;sensor_type;location;lat;lon;timestamp;pressure;altitude;pressure_sealevel;temperature;humidity
67397;BME280;57728;50.448;18.824;2023-10-08T00:00:52;97576.63;;;15.09;80.36
67397;BME280;57728;50.448;18.824;2023-10-08T00:02:56;97610.38;;;15.30;80.66
67397;BME280;57728;50.448;18.824;2023-10-08T00:04:58;97576.63;;;15.15;80.67
67397;BME280;57728;50.448;18.824;2023-10-08T00:07:01;97575.25;;;15.22;80.64
67397;BME280;57728;50.448;18.824;2023-10-08T00:09:02;97577.19;;;15.22;80.51
67397;BME280;57728;50.448;18.824;2023-10-08T00:11:08;97548.09;;;15.00;80.34
67397;BME280;57728;50.448;18.824;2023-10-08T00:13:12;97588.16;;;15.32;80.44
67397;BME280;57728;50.448;18.824;2023-10-08T00:15:13;97545.94;;;15.07;80.80
67397;BME280;57728;50.448;18.824;2023-10-08T00:17:16;97536.03;;;15.01;80.95
67397;BME280;57728;50.448;18.824;2023-10-08T00:19:20;97554.13;;;15.12;80.55
67397;BME280;57728;50.448;18.824;2023-10-08T00:21:22;97591.19;;;15.30;80.39
67397;BME280;57728;50.448;18.824;2023-10-08T00:23:27;97592.53;;;15.28;80.55
67397;BME280;57728;50.448;18.824;2023-10-08T00:25:28;97578.81;;;15.12;80.40
67397;BME280;57728;50.448;18.824;2023-10-08T00:27:31;97573.59;;;15.11;80.37
67397;BME280;57728;50.448;18.824;2023-10-08T00:29:40;97583.75;;;15.10;80.50
67397;BME280;57728;50.448;18.824;2023-10-08T00:31:44;97560.72;;;14.96;80.20
67397;BME280;57728;50.448;18.824;2023-10-08T00:33:46;97605.13;;;15.13;80.17
67397;BME280;57728;50.448;18.824;2023-10-08T00:35:48;97557.63;;;14.77;79.91
67397;BME280;57728;50.448;18.824;2023-10-08T00:37:50;97608.41;;;15.05;79.65
67397;BME280;57728;50.448;18.824;2023-10-08T00:39:51;97602.34;;;14.98;79.15
67397;BME280;57728;50.448;18.824;2023-10-08T00:41:55;97610.00;;;14.86;78.69
67397;BME280;57728;50.448;18.824;2023-10-08T00:43:59;97529.72;;;14.22;78.01
67397;BME280;57728;50.448;18.824;2023-10-08T00:46:07;97614.75;;;14.53;77.47
67397;BME280;57728;50.448;18.824;2023-10-08T00:48:25;97615.19;;;14.29;77.93
67397;BME280;57728;50.448;18.824;2023-10-08T00:50:30;97588.47;;;14.04;77.54
67397;BME280;57728;50.448;18.824;2023-10-08T00:52:43;97579.88;;;13.85;77.50
67397;BME280;57728;50.448;18.824;2023-10-08T00:54:59;97587.50;;;13.78;77.74
67397;BME280;57728;50.448;18.824;2023-10-08T00:57:04;97595.63;;;13.67;77.81
67397;BME280;57728;50.448;18.824;2023-10-08T00:59:06;97601.59;;;13.64;78.24
67397;BME280;57728;50.448;18.824;2023-10-08T01:01:09;97621.63;;;13.70;77.92
67397;BME280;57728;50.448;18.824;2023-10-08T01:03:12;97537.19;;;13.14;78.32
67397;BME280;57728;50.448;18.824;2023-10-08T01:05:16;97600.13;;;13.46;78.23
67397;BME280;57728;50.448;18.824;2023-10-08T01:07:28;97604.41;;;13.37;78.26
67397;BME280;57728;50.448;18.824;2023-10-08T01:09:31;97611.78;;;13.36;78.07
67397;BME280;57728;50.448;18.824;2023-10-08T01:11:35;97640.00;;;13.42;78.34
67397;BME280;57728;50.448;18.824;2023-10-08T01:13:51;97594.06;;;13.17;78.46
67397;BME280;57728;50.448;18.824;2023-10-08T01:15:55;97602.16;;;13.06;78.44
67397;BME280;57728;50.448;18.824;2023-10-08T01:17:58;97642.22;;;13.23;78.30
67397;BME280;57728;50.448;18.824;2023-10-08T01:20:06;97598.44;;;12.90;78.37
67397;BME280;57728;50.448;18.824;2023-10-08T01:22:22;97648.66;;;13.12;78.21
67397;BME280;57728;50.448;18.824;2023-10-08T01:24:23;97613.19;;;12.89;78.08
67397;BME280;57728;50.448;18.824;2023-10-08T01:26:26;97620.50;;;12.84;78.19
67397;BME280;57728;50.448;18.824;2023-10-08T01:28:30;97656.84;;;12.84;77.94
67397;BME280;57728;50.448;18.824;2023-10-08T01:30:32;97654.53;;;12.76;78.23
67397;BME280;57728;50.448;18.824;2023-10-08T01:32:38;97667.94;;;12.78;78.26
67397;BME280;57728;50.448;18.824;2023-10-08T01:34:42;97642.03;;;12.58;78.59
67397;BME280;57728;50.448;18.824;2023-10-08T01:36:46;97625.69;;;12.41;78.60
67397;BME280;57728;50.448;18.824;2023-10-08T01:38:47;97644.75;;;12.58;79.16
67397;BME280;57728;50.448;18.824;2023-10-08T01:40:50;97650.63;;;12.67;79.24
67397;BME280;57728;50.448;18.824;2023-10-08T01:42:54;97641.06;;;12.69;79.40
67397;BME280;57728;50.448;18.824;2023-10-08T01:44:56;97639.19;;;12.70;78.94
67397;BME280;57728;50.448;18.824;2023-10-08T01:46:57;97611.16;;;12.58;79.11
67397;BME280;57728;50.448;18.824;2023-10-08T01:48:59;97628.81;;;12.72;78.84
67397;BME280;57728;50.448;18.824;2023-10-08T01:51:05;97604.19;;;12.45;79.03
67397;BME280;57728;50.448;18.824;2023-10-08T01:53:14;97575.66;;;12.35;78.91
67397;BME280;57728;50.448;18.824;2023-10-08T01:55:17;97619.03;;;12.54;78.74
67397;BME280;57728;50.448;18.824;2023-10-08T01:57:20;97570.19;;;12.35;78.69
67397;BME280;57728;50.448;18.824;2023-10-08T01:59:23;97643.78;;;12.69;78.54
67397;BME280;57728;50.448;18.824;2023-10-08T02:01:24;97603.16;;;12.29;78.68
67397;BME280;57728;50.448;18.824;2023-10-08T02:03:26;97635.63;;;12.47;78.69
67397;BME280;57728;50.448;18.824;2023-10-08T02:05:29;97614.47;;;12.37;78.78
67397;BME280;57728;50.448;18.824;2023-10-08T02:07:31;97638.34;;;12.47;78.52
67397;BME280;57728;50.448;18.824;2023-10-08T02:09:32;97640.81;;;12.49;78.71
67397;BME280;57728;50.448;18.824;2023-10-08T02:11:48;97667.69;;;12.57;78.81
67397;BME280;57728;50.448;18.824;2023-10-08T02:13:51;97633.84;;;12.36;78.71
67397;BME280;57728;50.448;18.824;2023-10-08T02:15:52;97664.88;;;12.52;78.91
67397;BME280;57728;50.448;18.824;2023-10-08T02:17:54;97645.56;;;12.36;78.74
67397;BME280;57728;50.448;18.824;2023-10-08T02:19:55;97637.88;;;12.33;78.64
67397;BME280;57728;50.448;18.824;2023-10-08T02:21:57;97625.81;;;12.29;78.92
67397;BME280;57728;50.448;18.824;2023-10-08T02:23:59;97632.69;;;12.32;79.03
67397;BME280;57728;50.448;18.824;2023-10-08T02:26:00;97620.34;;;12.29;78.97
67397;BME280;57728;50.448;18.824;2023-10-08T02:28:03;97569.78;;;12.04;78.66
67397;BME280;57728;50.448;18.824;2023-10-08T02:30:06;97626.97;;;12.33;78.87
67397;BME280;57728;50.448;18.824;2023-10-08T02:32:10;97533.00;;;11.68;78.61
67397;BME280;57728;50.448;18.824;2023-10-08T02:34:11;97578.56;;;11.90;78.76
67397;BME280;57728;50.448;18.824;2023-10-08T02:36:13;97672.44;;;12.45;78.82
67397;BME280;57728;50.448;18.824;2023-10-08T02:38:17;97658.31;;;12.31;78.90
67397;BME280;57728;50.448;18.824;2023-10-08T02:40:19;97622.22;;;12.07;78.73
67397;BME280;57728;50.448;18.824;2023-10-08T02:42:27;97649.72;;;12.22;79.00
67397;BME280;57728;50.448;18.824;2023-10-08T02:44:28;97686.09;;;12.45;79.12
67397;BME280;57728;50.448;18.824;2023-10-08T02:46:31;97667.91;;;12.33;79.15
67397;BME280;57728;50.448;18.824;2023-10-08T02:48:34;97642.56;;;12.16;78.85
67397;BME280;57728;50.448;18.824;2023-10-08T02:50:35;97670.31;;;12.30;78.89
67397;BME280;57728;50.448;18.824;2023-10-08T02:52:38;97672.13;;;12.24;79.39
67397;BME280;57728;50.448;18.824;2023-10-08T02:54:39;97615.75;;;11.79;78.99
67397;BME280;57728;50.448;18.824;2023-10-08T02:56:41;97645.88;;;12.01;79.38
67397;BME280;57728;50.448;18.824;2023-10-08T02:58:45;97693.28;;;12.34;79.50
67397;BME280;57728;50.448;18.824;2023-10-08T03:00:49;97310.13;;;9.95;78.76
67397;BME280;57728;50.448;18.824;2023-10-08T03:02:50;97696.22;;;12.27;78.89
67397;BME280;57728;50.448;18.824;2023-10-08T03:04:54;97672.75;;;12.09;78.88
67397;BME280;57728;50.448;18.824;2023-10-08T03:06:56;97714.72;;;12.25;79.22
67397;BME280;57728;50.448;18.824;2023-10-08T03:08:57;97712.00;;;12.25;79.33
67397;BME280;57728;50.448;18.824;2023-10-08T03:11:05;97688.03;;;12.10;79.21
67397;BME280;57728;50.448;18.824;2023-10-08T03:13:08;97690.69;;;12.05;78.73
67397;BME280;57728;50.448;18.824;2023-10-08T03:15:11;97722.69;;;12.10;79.06
67397;BME280;57728;50.448;18.824;2023-10-08T03:17:15;97700.50;;;11.89;78.75
67397;BME280;57728;50.448;18.824;2023-10-08T03:19:22;97677.91;;;11.60;78.98
67397;BME280;57728;50.448;18.824;2023-10-08T03:21:23;97724.00;;;11.61;79.04
67397;BME280;57728;50.448;18.824;2023-10-08T03:23:40;97754.69;;;11.68;79.03
67397;BME280;57728;50.448;18.824;2023-10-08T03:25:47;97734.75;;;11.51;78.93
67397;BME280;57728;50.448;18.824;2023-10-08T03:27:50;97638.94;;;10.84;79.00
67397;BME280;57728;50.448;18.824;2023-10-08T03:29:54;97766.81;;;11.61;79.19
67397;BME280;57728;50.448;18.824;2023-10-08T03:32:00;97769.44;;;11.56;79.14
67397;BME280;57728;50.448;18.824;2023-10-08T03:34:06;97678.06;;;10.95;79.29
67397;BME280;57728;50.448;18.824;2023-10-08T03:36:08;97766.91;;;11.37;79.38
67397;BME280;57728;50.448;18.824;2023-10-08T03:38:12;97803.84;;;11.45;79.45
67397;BME280;57728;50.448;18.824;2023-10-08T03:40:22;97805.88;;;11.38;79.42
67397;BME280;57728;50.448;18.824;2023-10-08T03:42:26;97773.25;;;11.14;79.71
67397;BME280;57728;50.448;18.824;2023-10-08T03:44:36;97759.78;;;10.95;79.95
67397;BME280;57728;50.448;18.824;2023-10-08T03:46:39;97754.00;;;10.92;80.16
67397;BME280;57728;50.448;18.824;2023-10-08T03:48:43;97807.81;;;11.25;80.23
67397;BME280;57728;50.448;18.824;2023-10-08T03:50:46;97753.06;;;10.86;80.29
67397;BME280;57728;50.448;18.824;2023-10-08T03:52:57;97773.41;;;10.95;80.44
67397;BME280;57728;50.448;18.824;2023-10-08T03:54:59;97771.78;;;10.94;80.23
67397;BME280;57728;50.448;18.824;2023-10-08T03:57:14;97759.00;;;10.83;80.51
67397;BME280;57728;50.448;18.824;2023-10-08T03:59:20;97831.75;;;11.23;80.57
67397;BME280;57728;50.448;18.824;2023-10-08T04:01:34;97826.31;;;11.23;80.73
67397;BME280;57728;50.448;18.824;2023-10-08T04:03:37;97729.88;;;10.60;80.93
67397;BME280;57728;50.448;18.824;2023-10-08T04:05:58;97837.22;;;11.23;80.64
67397;BME280;57728;50.448;18.824;2023-10-08T04:08:15;97821.94;;;11.10;80.62
67397;BME280;57728;50.448;18.824;2023-10-08T04:10:40;97815.72;;;10.86;80.61
67397;BME280;57728;50.448;18.824;2023-10-08T04:12:44;97852.38;;;11.19;80.68
67397;BME280;57728;50.448;18.824;2023-10-08T04:14:45;97741.97;;;10.52;80.79
67397;BME280;57728;50.448;18.824;2023-10-08T04:16:47;97837.00;;;11.13;80.98
67397;BME280;57728;50.448;18.824;2023-10-08T04:18:52;97828.69;;;11.08;80.81
67397;BME280;57728;50.448;18.824;2023-10-08T04:20:56;97841.47;;;11.19;80.73
67397;BME280;57728;50.448;18.824;2023-10-08T04:23:04;97804.53;;;10.99;80.61
67397;BME280;57728;50.448;18.824;2023-10-08T04:25:14;97729.53;;;10.44;80.42
67397;BME280;57728;50.448;18.824;2023-10-08T04:27:15;97831.66;;;11.06;80.75
67397;BME280;57728;50.448;18.824;2023-10-08T04:29:17;97824.56;;;11.05;80.60
67397;BME280;57728;50.448;18.824;2023-10-08T04:31:26;97835.69;;;11.04;80.52
67397;BME280;57728;50.448;18.824;2023-10-08T04:33:47;97828.13;;;10.94;80.33
67397;BME280;57728;50.448;18.824;2023-10-08T04:35:49;97805.63;;;10.63;80.36
67397;BME280;57728;50.448;18.824;2023-10-08T04:37:56;97762.03;;;10.27;80.22
67397;BME280;57728;50.448;18.824;2023-10-08T04:39:57;97900.00;;;11.05;80.35
67397;BME280;57728;50.448;18.824;2023-10-08T04:42:02;97769.50;;;10.20;80.48
67397;BME280;57728;50.448;18.824;2023-10-08T04:44:13;97917.28;;;10.98;80.30
67397;BME280;57728;50.448;18.824;2023-10-08T04:46:16;97883.09;;;10.79;80.60
67397;BME280;57728;50.448;18.824;2023-10-08T04:48:50;97887.09;;;10.76;80.68
67397;BME280;57728;50.448;18.824;2023-10-08T04:50:52;97915.88;;;10.84;80.93
67397;BME280;57728;50.448;18.824;2023-10-08T04:52:59;97925.47;;;10.87;80.71
67397;BME280;57728;50.448;18.824;2023-10-08T04:55:01;97947.25;;;10.98;81.04
67397;BME280;57728;50.448;18.824;2023-10-08T04:57:13;97892.06;;;10.68;80.78
67397;BME280;57728;50.448;18.824;2023-10-08T04:59:17;97936.97;;;11.00;80.99
67397;BME280;57728;50.448;18.824;2023-10-08T05:01:23;97892.16;;;10.73;80.85
67397;BME280;57728;50.448;18.824;2023-10-08T05:03:30;97900.00;;;10.81;80.63
67397;BME280;57728;50.448;18.824;2023-10-08T05:05:44;97907.34;;;10.80;80.93
67397;BME280;57728;50.448;18.824;2023-10-08T05:08:04;97828.72;;;10.37;81.00
67397;BME280;57728;50.448;18.824;2023-10-08T05:10:22;97902.97;;;11.03;81.06
67397;BME280;57728;50.448;18.824;2023-10-08T05:12:26;97842.69;;;10.76;80.90
67397;BME280;57728;50.448;18.824;2023-10-08T05:14:34;97893.63;;;10.99;80.86
67397;BME280;57728;50.448;18.824;2023-10-08T05:16:39;97884.00;;;10.73;80.28
67397;BME280;57728;50.448;18.824;2023-10-08T05:19:01;97968.59;;;11.13;80.54
67397;BME280;57728;50.448;18.824;2023-10-08T05:21:26;97936.34;;;10.98;80.31
67397;BME280;57728;50.448;18.824;2023-10-08T05:23:29;97958.50;;;11.14;80.35
67397;BME280;57728;50.448;18.824;2023-10-08T05:25:30;97953.66;;;11.16;80.32
67397;BME280;57728;50.448;18.824;2023-10-08T05:27:55;97946.66;;;11.08;80.13
67397;BME280;57728;50.448;18.824;2023-10-08T05:29:56;97932.72;;;11.05;79.82
67397;BME280;57728;50.448;18.824;2023-10-08T05:32:17;97905.81;;;10.84;79.57
67397;BME280;57728;50.448;18.824;2023-10-08T05:34:38;97971.78;;;11.22;79.63
67397;BME280;57728;50.448;18.824;2023-10-08T05:37:05;97958.41;;;11.09;79.39
67397;BME280;57728;50.448;18.824;2023-10-08T05:39:06;97947.72;;;10.95;79.40
67397;BME280;57728;50.448;18.824;2023-10-08T05:41:27;98006.16;;;11.23;79.37
67397;BME280;57728;50.448;18.824;2023-10-08T05:43:35;98002.97;;;11.26;79.30
67397;BME280;57728;50.448;18.824;2023-10-08T05:45:37;97994.78;;;11.14;79.30
67397;BME280;57728;50.448;18.824;2023-10-08T05:47:40;98001.66;;;11.29;79.23
67397;BME280;57728;50.448;18.824;2023-10-08T05:49:52;97986.13;;;11.17;78.89
67397;BME280;57728;50.448;18.824;2023-10-08T05:52:16;97994.06;;;11.19;78.89
67397;BME280;57728;50.448;18.824;2023-10-08T05:54:31;98013.50;;;11.34;78.64
67397;BME280;57728;50.448;18.824;2023-10-08T05:56:32;98009.47;;;11.25;78.81
67397;BME280;57728;50.448;18.824;2023-10-08T05:58:53;98020.72;;;11.41;78.62
67397;BME280;57728;50.448;18.824;2023-10-08T06:01:13;98002.47;;;11.29;78.58
67397;BME280;57728;50.448;18.824;2023-10-08T06:03:34;97983.66;;;11.16;78.44
67397;BME280;57728;50.448;18.824;2023-10-08T06:05:54;98016.09;;;11.29;78.50
67397;BME280;57728;50.448;18.824;2023-10-08T06:08:16;97977.00;;;11.00;78.33
67397;BME280;57728;50.448;18.824;2023-10-08T06:10:37;98026.44;;;11.27;78.49
67397;BME280;57728;50.448;18.824;2023-10-08T06:12:38;98043.97;;;11.43;78.36
67397;BME280;57728;50.448;18.824;2023-10-08T06:14:51;97911.56;;;10.64;78.13
67397;BME280;57728;50.448;18.824;2023-10-08T06:17:08;98050.38;;;11.49;78.20
67397;BME280;57728;50.448;18.824;2023-10-08T06:19:24;98033.91;;;11.44;78.19
67397;BME280;57728;50.448;18.824;2023-10-08T06:21:27;97914.09;;;10.78;77.94
67397;BME280;57728;50.448;18.824;2023-10-08T06:23:29;97934.22;;;10.77;76.94
67397;BME280;57728;50.448;18.824;2023-10-08T06:25:33;98062.72;;;11.51;76.99
67397;BME280;57728;50.448;18.824;2023-10-08T06:27:46;98040.78;;;11.34;77.09
67397;BME280;57728;50.448;18.824;2023-10-08T06:29:47;97985.63;;;10.97;77.16
67397;BME280;57728;50.448;18.824;2023-10-08T06:31:48;98072.66;;;11.46;77.32
67397;BME280;57728;50.448;18.824;2023-10-08T06:33:56;98063.06;;;11.31;77.09
67397;BME280;57728;50.448;18.824;2023-10-08T06:35:58;98081.06;;;11.32;77.03
67397;BME280;57728;50.448;18.824;2023-10-08T06:38:03;98093.03;;;11.43;76.97
67397;BME280;57728;50.448;18.824;2023-10-08T06:40:11;98100.25;;;11.38;76.47
67397;BME280;57728;50.448;18.824;2023-10-08T06:42:41;98113.16;;;11.30;76.58
67397;BME280;57728;50.448;18.824;2023-10-08T06:44:43;98084.69;;;11.14;76.86
67397;BME280;57728;50.448;18.824;2023-10-08T06:46:47;98098.69;;;11.18;76.59
67397;BME280;57728;50.448;18.824;2023-10-08T06:48:49;98109.09;;;11.21;76.87
67397;BME280;57728;50.448;18.824;2023-10-08T06:50:52;98052.03;;;10.84;77.16
67397;BME280;57728;50.448;18.824;2023-10-08T06:53:09;98107.31;;;11.15;76.83
67397;BME280;57728;50.448;18.824;2023-10-08T06:55:10;98079.50;;;10.82;77.07
67397;BME280;57728;50.448;18.824;2023-10-08T06:57:12;98113.66;;;10.97;77.42
67397;BME280;57728;50.448;18.824;2023-10-08T06:59:15;98142.00;;;11.08;77.58
67397;BME280;57728;50.448;18.824;2023-10-08T07:01:18;98139.28;;;11.08;77.56
67397;BME280;57728;50.448;18.824;2023-10-08T07:03:25;98124.78;;;10.95;77.98
67397;BME280;57728;50.448;18.824;2023-10-08T07:05:28;98141.53;;;11.11;77.72
67397;BME280;57728;50.448;18.824;2023-10-08T07:07:29;98150.34;;;11.13;77.94
67397;BME280;57728;50.448;18.824;2023-10-08T07:09:32;98118.13;;;10.91;77.50
67397;BME280;57728;50.448;18.824;2023-10-08T07:11:37;98056.44;;;10.36;77.50
67397;BME280;57728;50.448;18.824;2023-10-08T07:13:44;98136.16;;;10.92;78.10
67397;BME280;57728;50.448;18.824;2023-10-08T07:15:46;98153.22;;;10.99;77.99
67397;BME280;57728;50.448;18.824;2023-10-08T07:17:47;98099.56;;;10.70;77.91
67397;BME280;57728;50.448;18.824;2023-10-08T07:19:52;98148.78;;;10.87;78.30
67397;BME280;57728;50.448;18.824;2023-10-08T07:21:54;98136.09;;;10.80;78.57
67397;BME280;57728;50.448;18.824;2023-10-08T07:24:05;98083.44;;;10.56;78.79
67397;BME280;57728;50.448;18.824;2023-10-08T07:26:15;98115.53;;;10.84;78.56
67397;BME280;57728;50.448;18.824;2023-10-08T07:28:19;98146.75;;;11.12;78.73
67397;BME280;57728;50.448;18.824;2023-10-08T07:30:21;98172.81;;;11.39;78.97
67397;BME280;57728;50.448;18.824;2023-10-08T07:32:27;98184.66;;;11.44;78.30
67397;BME280;57728;50.448;18.824;2023-10-08T07:34:31;98145.38;;;11.22;78.01
67397;BME280;57728;50.448;18.824;2023-10-08T07:36:33;98187.56;;;11.61;78.14
67397;BME280;57728;50.448;18.824;2023-10-08T07:38:35;98116.84;;;11.24;77.40
67397;BME280;57728;50.448;18.824;2023-10-08T07:40:36;98190.88;;;11.63;77.49
67397;BME280;57728;50.448;18.824;2023-10-08T07:42:39;98182.09;;;11.61;77.41
67397;BME280;57728;50.448;18.824;2023-10-08T07:44:40;98204.41;;;11.82;77.29
67397;BME280;57728;50.448;18.824;2023-10-08T07:46:42;98207.38;;;11.80;76.78
67397;BME280;57728;50.448;18.824;2023-10-08T07:48:44;98193.00;;;11.61;76.53
67397;BME280;57728;50.448;18.824;2023-10-08T07:50:46;98212.34;;;11.72;76.63
67397;BME280;57728;50.448;18.824;2023-10-08T07:52:47;98223.50;;;11.70;76.45
67397;BME280;57728;50.448;18.824;2023-10-08T07:54:49;98218.88;;;11.70;76.37
67397;BME280;57728;50.448;18.824;2023-10-08T07:56:50;98106.25;;;10.86;75.73
67397;BME280;57728;50.448;18.824;2023-10-08T07:59:10;98191.88;;;11.39;75.95
67397;BME280;57728;50.448;18.824;2023-10-08T08:01:16;98216.59;;;11.56;77.07
67397;BME280;57728;50.448;18.824;2023-10-08T08:03:18;98248.69;;;11.84;76.51
67397;BME280;57728;50.448;18.824;2023-10-08T08:05:20;98249.81;;;12.07;76.13
67397;BME280;57728;50.448;18.824;2023-10-08T08:07:22;98221.84;;;12.23;75.86
67397;BME280;57728;50.448;18.824;2023-10-08T08:09:25;98173.91;;;12.27;75.58
67397;BME280;57728;50.448;18.824;2023-10-08T08:11:27;98216.78;;;12.91;73.58
67397;BME280;57728;50.448;18.824;2023-10-08T08:13:29;98235.81;;;13.15;72.28
67397;BME280;57728;50.448;18.824;2023-10-08T08:15:30;98216.53;;;13.33;71.98
67397;BME280;57728;50.448;18.824;2023-10-08T08:17:31;98190.81;;;13.46;70.76
67397;BME280;57728;50.448;18.824;2023-10-08T08:19:34;98216.31;;;14.15;70.98
67397;BME280;57728;50.448;18.824;2023-10-08T08:21:36;98241.19;;;15.08;70.72
67397;BME280;57728;50.448;18.824;2023-10-08T08:23:37;98160.47;;;15.48;68.32
67397;BME280;57728;50.448;18.824;2023-10-08T08:25:41;98246.38;;;16.84;66.34
67397;BME280;57728;50.448;18.824;2023-10-08T08:28:01;98215.59;;;17.61;62.62
67397;BME280;57728;50.448;18.824;2023-10-08T08:30:02;98237.97;;;18.52;60.65
67397;BME280;57728;50.448;18.824;2023-10-08T08:32:17;98249.78;;;18.99;55.09
67397;BME280;57728;50.448;18.824;2023-10-08T08:34:23;98196.56;;;18.67;52.21
67397;BME280;57728;50.448;18.824;2023-10-08T08:36:27;98255.84;;;18.90;51.47
67397;BME280;57728;50.448;18.824;2023-10-08T08:38:30;98230.75;;;18.71;49.18
67397;BME280;57728;50.448;18.824;2023-10-08T08:40:33;98225.00;;;18.63;48.45
67397;BME280;57728;50.448;18.824;2023-10-08T08:42:35;98268.00;;;18.89;48.00
67397;BME280;57728;50.448;18.824;2023-10-08T08:44:41;98252.53;;;18.78;47.43
67397;BME280;57728;50.448;18.824;2023-10-08T08:46:47;98275.41;;;18.99;47.01
67397;BME280;57728;50.448;18.824;2023-10-08T08:48:51;98286.06;;;19.32;47.39
67397;BME280;57728;50.448;18.824;2023-10-08T08:50:54;98285.34;;;19.71;47.44
67397;BME280;57728;50.448;18.824;2023-10-08T08:52:56;98283.34;;;20.26;47.83
67397;BME280;57728;50.448;18.824;2023-10-08T08:54:59;98243.03;;;20.50;46.74
67397;BME280;57728;50.448;18.824;2023-10-08T08:57:05;98224.28;;;20.76;45.38
67397;BME280;57728;50.448;18.824;2023-10-08T08:59:14;98227.22;;;21.09;43.55
67397;BME280;57728;50.448;18.824;2023-10-08T09:01:19;98262.22;;;21.24;41.24
67397;BME280;57728;50.448;18.824;2023-10-08T09:03:21;98308.53;;;21.42;40.90
67397;BME280;57728;50.448;18.824;2023-10-08T09:05:31;98241.03;;;20.90;39.48
67397;BME280;57728;50.448;18.824;2023-10-08T09:07:35;98316.16;;;21.02;37.09
67397;BME280;57728;50.448;18.824;2023-10-08T09:09:37;98311.16;;;20.75;37.40
67397;BME280;57728;50.448;18.824;2023-10-08T09:11:40;98276.06;;;20.36;37.95
67397;BME280;57728;50.448;18.824;2023-10-08T09:13:43;98277.09;;;20.45;39.08
67397;BME280;57728;50.448;18.824;2023-10-08T09:15:46;98199.09;;;20.19;39.56
67397;BME280;57728;50.448;18.824;2023-10-08T09:17:47;98329.84;;;21.42;39.46
67397;BME280;57728;50.448;18.824;2023-10-08T09:19:52;98308.91;;;21.30;38.08
67397;BME280;57728;50.448;18.824;2023-10-08T09:22:04;98331.78;;;20.88;38.71
67397;BME280;57728;50.448;18.824;2023-10-08T09:24:07;98328.72;;;20.20;38.79
67397;BME280;57728;50.448;18.824;2023-10-08T09:26:12;98315.06;;;19.24;39.41
67397;BME280;57728;50.448;18.824;2023-10-08T09:28:16;98297.81;;;18.26;40.58
67397;BME280;57728;50.448;18.824;2023-10-08T09:30:19;98285.88;;;17.10;40.35
67397;BME280;57728;50.448;18.824;2023-10-08T09:32:20;98347.34;;;16.56;41.58
67397;BME280;57728;50.448;18.824;2023-10-08T09:34:27;98351.16;;;16.23;43.74
67397;BME280;57728;50.448;18.824;2023-10-08T09:36:31;98246.16;;;15.83;42.88
67397;BME280;57728;50.448;18.824;2023-10-08T09:38:33;98349.63;;;17.02;43.27
67397;BME280;57728;50.448;18.824;2023-10-08T09:40:39;98317.16;;;17.52;42.09
67397;BME280;57728;50.448;18.824;2023-10-08T09:42:42;98339.97;;;18.42;41.76
67397;BME280;57728;50.448;18.824;2023-10-08T09:44:44;98352.03;;;19.28;40.64
67397;BME280;57728;50.448;18.824;2023-10-08T09:46:52;98353.53;;;19.81;39.36
67397;BME280;57728;50.448;18.824;2023-10-08T09:49:01;98349.22;;;20.09;38.06
67397;BME280;57728;50.448;18.824;2023-10-08T09:51:10;98322.31;;;19.85;37.07
67397;BME280;57728;50.448;18.824;2023-10-08T09:53:14;98256.84;;;19.20;36.76
67397;BME280;57728;50.448;18.824;2023-10-08T09:55:20;98357.13;;;19.81;35.64
67397;BME280;57728;50.448;18.824;2023-10-08T09:57:22;98353.84;;;19.64;32.48
67397;BME280;57728;50.448;18.824;2023-10-08T09:59:28;98345.38;;;19.50;33.93
67397;BME280;57728;50.448;18.824;2023-10-08T10:01:30;98364.84;;;19.84;33.31
67397;BME280;57728;50.448;18.824;2023-10-08T10:03:33;98365.94;;;19.93;33.90
67397;BME280;57728;50.448;18.824;2023-10-08T10:05:38;98340.53;;;19.86;33.52
67397;BME280;57728;50.448;18.824;2023-10-08T10:07:40;98378.38;;;20.36;33.23
67397;BME280;57728;50.448;18.824;2023-10-08T10:09:45;98292.38;;;19.98;32.95
67397;BME280;57728;50.448;18.824;2023-10-08T10:11:56;98385.56;;;20.76;33.29
67397;BME280;57728;50.448;18.824;2023-10-08T10:13:59;98348.00;;;20.70;32.53
67397;BME280;57728;50.448;18.824;2023-10-08T10:16:01;98337.47;;;20.33;30.28
67397;BME280;57728;50.448;18.824;2023-10-08T10:18:12;98376.13;;;20.43;30.03
67397;BME280;57728;50.448;18.824;2023-10-08T10:20:26;98253.13;;;19.51;30.58
67397;BME280;57728;50.448;18.824;2023-10-08T10:22:30;98352.63;;;19.96;31.23
67397;BME280;57728;50.448;18.824;2023-10-08T10:24:36;98360.56;;;20.07;31.78
67397;BME280;57728;50.448;18.824;2023-10-08T10:26:42;98384.78;;;20.26;30.86
67397;BME280;57728;50.448;18.824;2023-10-08T10:31:19;98327.84;;;19.85;29.55
67397;BME280;57728;50.448;18.824;2023-10-08T10:33:20;98368.69;;;19.93;30.43
67397;BME280;57728;50.448;18.824;2023-10-08T10:35:22;98401.22;;;20.07;30.08
67397;BME280;57728;50.448;18.824;2023-10-08T10:37:25;98372.97;;;20.15;28.93
67397;BME280;57728;50.448;18.824;2023-10-08T10:39:26;98391.84;;;20.03;29.25
67397;BME280;57728;50.448;18.824;2023-10-08T10:41:28;98392.72;;;19.93;30.03
67397;BME280;57728;50.448;18.824;2023-10-08T10:43:30;98382.69;;;20.07;30.71
67397;BME280;57728;50.448;18.824;2023-10-08T10:45:34;98417.94;;;20.31;29.51
67397;BME280;57728;50.448;18.824;2023-10-08T10:47:44;98346.22;;;20.05;30.06
67397;BME280;57728;50.448;18.824;2023-10-08T10:49:50;98390.91;;;20.62;29.95
67397;BME280;57728;50.448;18.824;2023-10-08T10:51:52;98386.69;;;20.75;29.63
67397;BME280;57728;50.448;18.824;2023-10-08T10:53:57;98407.16;;;21.09;29.50
67397;BME280;57728;50.448;18.824;2023-10-08T10:56:09;98352.28;;;20.87;30.29
67397;BME280;57728;50.448;18.824;2023-10-08T10:58:12;98398.19;;;21.22;28.96
67397;BME280;57728;50.448;18.824;2023-10-08T11:00:15;98373.34;;;21.12;28.00